Time;durP1;ratioP1;P1;durP2;ratioP2;P2;SDS_P1;SDS_P2;PMS_P1;PMS_P2;Temp;Humidity;BMP_temperature;BMP_pressure;BME280_temperature;BME280_humidity;BME280_pressure;Samples;Min_cycle;Max_cycle;Signal;HPM_P1;HPM_P2
2022/10/31 00:01:21;;;;;;;3.27;1.60;;;8.70;99.30;;;;;;4180640;28;20601;-66
2022/10/31 00:03:22;;;;;;;4.30;1.90;;;8.70;99.40;;;;;;4180739;28;20186;-66
2022/10/31 00:05:22;;;;;;;2.07;1.50;;;8.70;99.10;;;;;;4180772;28;20333;-67
2022/10/31 00:07:23;;;;;;;4.13;1.63;;;8.70;99.10;;;;;;4180441;28;20184;-66
2022/10/31 00:09:23;;;;;;;4.97;2.00;;;8.70;98.80;;;;;;4180736;28;20177;-66
2022/10/31 00:11:24;;;;;;;3.97;1.50;;;8.70;99.50;;;;;;4179759;28;20184;-66
2022/10/31 00:13:25;;;;;;;5.50;1.50;;;8.70;99.50;;;;;;4180721;28;20183;-66
2022/10/31 00:15:25;;;;;;;5.27;1.83;;;8.60;99.80;;;;;;4180585;28;20178;-67
2022/10/31 00:17:26;;;;;;;4.67;1.87;;;8.60;99.90;;;;;;4196387;28;20640;-67
2022/10/31 00:19:26;;;;;;;3.93;1.80;;;8.60;99.90;;;;;;4180754;28;20994;-66
2022/10/31 00:21:28;;;;;;;5.87;1.43;;;8.50;99.90;;;;;;4180037;28;20180;-66
2022/10/31 00:23:29;;;;;;;3.63;1.40;;;8.40;99.90;;;;;;4180538;28;20184;-66
2022/10/31 00:25:34;;;;;;;5.77;1.90;;;8.30;99.90;;;;;;4180296;28;21145;-66
2022/10/31 00:27:35;;;;;;;4.37;1.60;;;8.30;99.90;;;;;;4180264;28;20205;-67
2022/10/31 00:29:35;;;;;;;4.47;1.80;;;8.20;99.90;;;;;;4180576;28;20524;-66
2022/10/31 00:31:36;;;;;;;5.57;2.20;;;8.20;99.90;;;;;;4192395;28;20695;-67
2022/10/31 00:33:38;;;;;;;4.13;1.73;;;8.20;99.90;;;;;;4197402;28;20190;-67
2022/10/31 00:35:39;;;;;;;2.70;1.67;;;8.10;99.90;;;;;;4197027;28;20176;-66
2022/10/31 00:37:39;;;;;;;4.67;1.73;;;8.20;99.90;;;;;;4197077;28;20942;-67
2022/10/31 00:39:40;;;;;;;4.70;2.23;;;8.20;99.90;;;;;;4196692;28;20187;-67
2022/10/31 00:41:40;;;;;;;4.53;2.63;;;8.20;99.90;;;;;;4196210;28;20175;-66
2022/10/31 00:43:42;;;;;;;3.07;1.70;;;8.30;99.90;;;;;;4196328;28;20188;-66
2022/10/31 00:45:43;;;;;;;4.07;1.47;;;8.30;99.90;;;;;;4196474;28;20190;-66
2022/10/31 00:47:44;;;;;;;4.10;1.63;;;8.30;99.90;;;;;;4196388;28;20981;-66
2022/10/31 00:49:44;;;;;;;2.17;1.40;;;8.30;99.90;;;;;;4196221;28;20417;-67
2022/10/31 00:51:45;;;;;;;2.97;1.67;;;8.30;99.90;;;;;;4195988;28;20186;-67
2022/10/31 00:53:45;;;;;;;2.63;1.50;;;8.30;99.90;;;;;;4196479;28;20207;-67
2022/10/31 00:55:46;;;;;;;2.77;1.60;;;8.40;99.90;;;;;;4196801;28;20178;-66
2022/10/31 00:57:47;;;;;;;4.03;1.73;;;8.40;99.90;;;;;;4196486;28;20294;-66
2022/10/31 00:59:48;;;;;;;4.00;1.70;;;8.40;99.90;;;;;;4196674;28;20219;-67
2022/10/31 01:01:48;;;;;;;5.93;2.03;;;8.30;99.90;;;;;;4195882;28;20436;-66
2022/10/31 01:03:49;;;;;;;6.77;2.30;;;8.30;99.90;;;;;;4196128;28;20298;-66
2022/10/31 01:06:01;;;;;;;5.47;2.03;;;8.30;99.90;;;;;;4196422;28;20281;-66
2022/10/31 01:08:02;;;;;;;4.70;1.60;;;8.30;99.90;;;;;;4195441;28;20301;-67
2022/10/31 01:10:03;;;;;;;2.40;1.50;;;8.40;99.90;;;;;;4196105;28;20932;-67
2022/10/31 01:12:04;;;;;;;3.57;1.43;;;8.50;99.90;;;;;;4195476;28;20202;-66
2022/10/31 01:14:05;;;;;;;4.77;1.60;;;8.50;99.90;;;;;;4190859;28;20784;-67
2022/10/31 01:16:07;;;;;;;4.83;1.50;;;8.40;99.90;;;;;;4179685;28;20176;-66
2022/10/31 01:18:07;;;;;;;6.03;1.90;;;8.40;99.90;;;;;;4180187;28;20711;-66
2022/10/31 01:20:10;;;;;;;5.93;1.57;;;8.40;99.90;;;;;;4179652;28;20180;-68
2022/10/31 01:22:10;;;;;;;2.43;1.50;;;8.30;99.90;;;;;;4179534;28;20687;-67
2022/10/31 01:24:11;;;;;;;4.23;1.70;;;8.20;99.90;;;;;;4179672;28;20194;-66
2022/10/31 01:26:13;;;;;;;6.63;1.63;;;8.20;99.90;;;;;;4179633;28;20268;-66
2022/10/31 01:28:13;;;;;;;4.13;1.70;;;8.20;99.90;;;;;;4179580;28;20535;-67
2022/10/31 01:30:14;;;;;;;5.27;1.63;;;8.20;99.90;;;;;;4179198;28;20458;-67
2022/10/31 01:32:14;;;;;;;4.23;1.73;;;8.20;99.90;;;;;;4179894;28;20277;-66
2022/10/31 01:34:17;;;;;;;4.03;1.60;;;8.20;99.90;;;;;;4179827;28;20177;-66
2022/10/31 01:36:22;;;;;;;5.37;1.93;;;8.10;99.90;;;;;;4180012;28;20180;-66
2022/10/31 01:38:23;;;;;;;3.83;1.50;;;8.00;99.90;;;;;;4179606;28;20464;-66
2022/10/31 01:40:23;;;;;;;4.67;1.70;;;8.00;99.90;;;;;;4178974;28;20272;-66
2022/10/31 01:42:24;;;;;;;2.63;1.60;;;7.90;99.90;;;;;;4179352;28;20184;-67
2022/10/31 01:44:24;;;;;;;4.07;1.70;;;8.00;99.90;;;;;;4179445;28;20577;-66
2022/10/31 01:46:32;;;;;;;4.27;1.70;;;8.00;99.90;;;;;;4179663;28;20192;-66
2022/10/31 01:48:33;;;;;;;3.47;1.70;;;8.00;99.90;;;;;;4179445;28;20306;-67
2022/10/31 01:50:38;;;;;;;4.63;1.90;;;8.00;99.90;;;;;;4178946;28;20428;-67
2022/10/31 01:52:43;;;;;;;3.83;1.80;;;7.90;99.90;;;;;;4179681;28;20179;-67
2022/10/31 01:54:50;;;;;;;5.63;2.33;;;7.90;99.90;;;;;;4179539;28;20433;-67
2022/10/31 01:56:55;;;;;;;2.50;1.50;;;8.00;99.90;;;;;;4180746;28;20411;-67
2022/10/31 01:58:59;;;;;;;7.80;1.97;;;7.90;99.90;;;;;;4182714;28;20469;-66
2022/10/31 02:01:01;;;;;;;3.97;1.60;;;8.00;99.90;;;;;;4182161;28;20422;-66
2022/10/31 02:03:02;;;;;;;3.07;1.73;;;8.00;99.90;;;;;;4182642;28;20856;-67
2022/10/31 02:05:06;;;;;;;5.67;1.73;;;8.00;99.90;;;;;;4182567;28;20196;-67
2022/10/31 02:07:25;;;;;;;4.50;1.90;;;7.90;99.90;;;;;;4182660;28;20189;-67
2022/10/31 02:09:26;;;;;;;4.03;1.90;;;8.00;99.90;;;;;;4182974;28;20406;-67
2022/10/31 02:11:29;;;;;;;7.50;2.10;;;7.90;99.90;;;;;;4181899;28;20560;-67
2022/10/31 02:13:29;;;;;;;6.00;1.90;;;7.90;99.90;;;;;;4182009;28;20438;-67
2022/10/31 02:15:31;;;;;;;4.90;1.83;;;7.90;99.90;;;;;;4182307;28;20195;-67
2022/10/31 02:17:33;;;;;;;6.73;2.07;;;7.90;99.90;;;;;;4182231;28;20604;-67
2022/10/31 02:20:04;;;;;;;2.23;1.67;;;7.80;99.90;;;;;;4182536;28;20423;-67
2022/10/31 02:22:28;;;;;;;4.50;2.17;;;7.80;99.90;;;;;;4181644;28;20164;-66
2022/10/31 02:24:44;;;;;;;2.97;1.77;;;7.80;99.90;;;;;;4182165;28;20430;-67
2022/10/31 02:27:06;;;;;;;4.83;1.73;;;7.90;99.90;;;;;;4182071;28;20160;-67
2022/10/31 02:29:36;;;;;;;4.53;2.07;;;7.90;99.90;;;;;;4182052;28;20595;-67
2022/10/31 02:31:55;;;;;;;6.37;2.20;;;7.90;99.90;;;;;;4181609;28;20518;-66
2022/10/31 02:34:07;;;;;;;4.77;1.90;;;7.90;99.90;;;;;;4181798;28;20419;-67
2022/10/31 02:36:30;;;;;;;4.47;1.80;;;7.90;99.90;;;;;;4182047;28;20169;-67
2022/10/31 02:38:33;;;;;;;6.30;1.87;;;7.90;99.90;;;;;;4181777;28;20676;-67
2022/10/31 02:40:44;;;;;;;5.73;1.90;;;7.90;99.90;;;;;;4192912;28;20996;-67
2022/10/31 02:43:09;;;;;;;5.83;1.80;;;8.00;99.90;;;;;;4198496;28;20988;-67
2022/10/31 02:45:35;;;;;;;4.17;1.60;;;8.00;99.90;;;;;;4198397;28;20426;-66
2022/10/31 02:47:37;;;;;;;7.27;1.90;;;7.90;99.90;;;;;;4198475;28;20461;-67
2022/10/31 02:49:53;;;;;;;3.70;1.80;;;7.90;99.90;;;;;;4198605;28;20506;-67
2022/10/31 02:51:54;;;;;;;2.83;1.83;;;8.00;99.90;;;;;;4197687;28;20979;-67
2022/10/31 02:53:55;;;;;;;6.43;2.13;;;7.90;99.90;;;;;;4198459;28;20191;-67
2022/10/31 02:56:12;;;;;;;8.93;1.77;;;7.90;99.90;;;;;;4198367;28;20179;-67
2022/10/31 02:58:17;;;;;;;2.97;1.57;;;7.80;99.90;;;;;;4198281;28;20215;-67
2022/10/31 03:00:18;;;;;;;8.67;1.90;;;7.70;99.90;;;;;;4197643;28;20430;-67
2022/10/31 03:02:36;;;;;;;3.83;1.60;;;7.70;99.90;;;;;;4198463;28;20429;-67
2022/10/31 03:05:23;;;;;;;3.97;2.00;;;7.70;99.90;;;;;;4198104;28;20243;-67
2022/10/31 03:07:49;;;;;;;2.90;1.63;;;7.80;99.90;;;;;;4195449;28;20424;-67
2022/10/31 03:10:22;;;;;;;3.63;1.90;;;7.80;99.90;;;;;;4197943;28;20422;-67
2022/10/31 03:12:35;;;;;;;8.97;2.37;;;7.80;99.90;;;;;;4184347;28;20442;-67
2022/10/31 03:14:45;;;;;;;2.83;1.70;;;7.90;99.90;;;;;;4181132;28;20471;-67
2022/10/31 03:16:48;;;;;;;5.93;1.73;;;7.90;99.90;;;;;;4180944;28;20172;-67
2022/10/31 03:18:49;;;;;;;4.83;2.00;;;7.90;99.90;;;;;;4181152;28;20481;-67
2022/10/31 03:20:58;;;;;;;5.10;1.73;;;8.00;99.90;;;;;;4180325;28;20428;-67
2022/10/31 03:23:02;;;;;;;3.17;1.50;;;8.00;99.90;;;;;;4181115;28;20613;-66
2022/10/31 03:25:04;;;;;;;4.13;2.20;;;7.90;99.90;;;;;;4181038;28;20466;-67
2022/10/31 03:27:08;;;;;;;3.67;1.90;;;7.90;99.90;;;;;;4180959;28;20671;-67
2022/10/31 03:29:12;;;;;;;4.47;1.80;;;8.00;99.90;;;;;;4181031;28;20268;-67
2022/10/31 03:31:17;;;;;;;4.30;2.80;;;7.90;99.90;;;;;;4180235;28;20227;-67
2022/10/31 03:33:23;;;;;;;8.17;1.83;;;7.90;99.90;;;;;;4180928;28;20212;-66
2022/10/31 03:35:27;;;;;;;3.67;2.10;;;7.90;99.90;;;;;;4181187;28;20439;-67
2022/10/31 03:37:32;;;;;;;5.23;1.87;;;7.80;99.90;;;;;;4180858;28;20485;-67
2022/10/31 03:39:34;;;;;;;5.90;1.83;;;7.80;99.90;;;;;;4181089;28;20438;-67
2022/10/31 03:41:42;;;;;;;3.93;2.17;;;7.80;99.90;;;;;;4180242;28;20457;-67
2022/10/31 03:43:52;;;;;;;5.03;2.10;;;7.80;99.90;;;;;;4181614;28;20438;-68
2022/10/31 03:45:52;;;;;;;5.03;1.80;;;7.80;99.90;;;;;;4195248;28;20593;-66
2022/10/31 03:47:54;;;;;;;2.60;1.63;;;7.80;99.90;;;;;;4197501;28;20517;-67
2022/10/31 03:49:56;;;;;;;5.93;1.80;;;7.80;99.90;;;;;;4197160;28;20188;-68
2022/10/31 03:52:19;;;;;;;4.33;2.00;;;7.80;99.90;;;;;;4196561;28;20430;-67
2022/10/31 03:54:25;;;;;;;6.03;1.97;;;7.70;99.90;;;;;;4197243;28;20492;-67
2022/10/31 03:56:40;;;;;;;3.47;2.27;;;7.70;99.90;;;;;;4197242;28;20921;-66
2022/10/31 03:58:52;;;;;;;6.93;1.90;;;7.60;99.90;;;;;;4197185;28;20967;-67
2022/10/31 04:00:55;;;;;;;4.13;1.70;;;7.70;99.90;;;;;;4195279;28;20824;-67
2022/10/31 04:03:18;;;;;;;4.70;2.00;;;7.70;99.90;;;;;;4197013;28;20823;-67
2022/10/31 04:05:21;;;;;;;3.33;1.87;;;7.70;99.90;;;;;;4196929;28;20414;-67
2022/10/31 04:07:24;;;;;;;5.83;1.80;;;7.60;99.90;;;;;;4196754;28;20437;-67
2022/10/31 04:09:27;;;;;;;4.63;2.10;;;7.60;99.90;;;;;;4196888;28;20974;-67
2022/10/31 04:11:31;;;;;;;7.17;3.13;;;7.60;99.90;;;;;;4196006;28;20788;-68
2022/10/31 04:13:35;;;;;;;6.53;1.73;;;7.70;99.90;;;;;;4196784;28;20475;-66
2022/10/31 04:15:38;;;;;;;5.30;1.70;;;7.70;99.90;;;;;;4196566;28;20440;-66
2022/10/31 04:17:41;;;;;;;4.03;1.70;;;7.70;99.90;;;;;;4196618;28;20450;-66
2022/10/31 04:19:42;;;;;;;3.10;1.70;;;7.70;99.90;;;;;;4196205;28;20756;-66
2022/10/31 04:21:45;;;;;;;3.63;1.80;;;7.70;99.90;;;;;;4196149;28;20433;-66
2022/10/31 04:23:46;;;;;;;5.03;1.60;;;7.70;99.90;;;;;;4196698;28;20232;-66
2022/10/31 04:25:46;;;;;;;3.80;1.60;;;7.80;99.90;;;;;;4196887;28;20839;-66
2022/10/31 04:27:47;;;;;;;3.23;2.10;;;7.90;99.90;;;;;;4196749;28;20630;-66
2022/10/31 04:29:47;;;;;;;6.37;1.70;;;7.90;99.90;;;;;;4196539;28;20189;-67
2022/10/31 04:31:48;;;;;;;5.13;1.77;;;7.90;99.90;;;;;;4196534;28;20176;-65
2022/10/31 04:33:48;;;;;;;3.93;1.97;;;7.90;99.90;;;;;;4196720;28;20186;-66
2022/10/31 04:35:49;;;;;;;8.17;2.30;;;7.90;99.90;;;;;;4196259;28;20237;-66
2022/10/31 04:37:49;;;;;;;4.33;1.73;;;7.80;99.90;;;;;;4196569;28;20215;-66
2022/10/31 04:39:50;;;;;;;4.57;1.70;;;7.70;99.90;;;;;;4196736;28;20186;-66
2022/10/31 04:41:50;;;;;;;4.23;1.80;;;7.70;99.90;;;;;;4195866;28;20203;-66
2022/10/31 04:43:51;;;;;;;3.20;2.10;;;7.60;99.90;;;;;;4196117;28;20210;-66
2022/10/31 04:45:52;;;;;;;3.30;1.77;;;7.70;99.90;;;;;;4196328;28;20702;-66
2022/10/31 04:47:52;;;;;;;2.50;1.97;;;7.70;99.90;;;;;;4195977;28;20215;-66
2022/10/31 04:49:53;;;;;;;5.93;1.80;;;7.70;99.90;;;;;;4196192;28;20189;-65
2022/10/31 04:51:53;;;;;;;3.67;1.70;;;7.70;99.90;;;;;;4195577;28;20182;-65
2022/10/31 04:53:54;;;;;;;3.17;1.70;;;7.70;99.90;;;;;;4194784;28;20183;-65
2022/10/31 04:55:54;;;;;;;7.03;1.90;;;7.60;99.90;;;;;;4195998;28;20245;-66
2022/10/31 04:57:55;;;;;;;5.97;1.73;;;7.60;99.90;;;;;;4196046;28;20290;-65
2022/10/31 04:59:55;;;;;;;4.00;1.60;;;7.60;99.90;;;;;;4195753;28;20630;-65
2022/10/31 05:01:56;;;;;;;4.37;2.20;;;7.60;99.90;;;;;;4194972;28;20180;-66
2022/10/31 05:03:57;;;;;;;2.80;1.90;;;7.60;99.90;;;;;;4195835;28;20246;-66
2022/10/31 05:05:57;;;;;;;4.33;1.70;;;7.70;99.90;;;;;;4195552;28;20669;-66
2022/10/31 05:07:58;;;;;;;9.30;2.20;;;7.70;99.90;;;;;;4195356;28;20245;-65
2022/10/31 05:09:58;;;;;;;5.43;1.93;;;7.70;99.90;;;;;;4195700;28;20188;-66
2022/10/31 05:11:59;;;;;;;7.83;2.87;;;7.80;99.90;;;;;;4194968;28;20271;-66
2022/10/31 05:13:59;;;;;;;11.20;1.70;;;7.80;99.90;;;;;;4191475;28;20261;-66
2022/10/31 05:16:00;;;;;;;3.03;1.70;;;7.80;99.90;;;;;;4179131;28;20168;-65
2022/10/31 05:18:00;;;;;;;3.37;1.73;;;7.70;99.90;;;;;;4179098;28;20200;-65
2022/10/31 05:20:01;;;;;;;3.53;2.00;;;7.60;99.90;;;;;;4179256;28;20607;-66
2022/10/31 05:22:01;;;;;;;4.40;2.13;;;7.60;99.90;;;;;;4178724;28;20281;-66
2022/10/31 05:24:02;;;;;;;3.20;1.70;;;7.70;99.90;;;;;;4178894;28;20230;-66
2022/10/31 05:26:04;;;;;;;3.57;2.00;;;7.70;99.90;;;;;;4178898;28;20180;-66
2022/10/31 05:28:04;;;;;;;4.30;1.60;;;7.80;99.90;;;;;;4177291;28;20236;-67
2022/10/31 05:30:05;;;;;;;5.37;1.90;;;7.70;99.90;;;;;;4178945;28;20422;-66
2022/10/31 05:32:06;;;;;;;2.57;1.77;;;7.70;99.90;;;;;;4179417;28;20180;-66
2022/10/31 05:34:06;;;;;;;5.00;1.87;;;7.60;99.90;;;;;;4182143;28;20792;-67
2022/10/31 05:36:07;;;;;;;3.23;1.70;;;7.60;99.90;;;;;;4182194;28;20186;-66
2022/10/31 05:38:08;;;;;;;4.70;1.90;;;7.60;99.90;;;;;;4182326;28;20200;-66
2022/10/31 05:40:11;;;;;;;2.57;1.70;;;7.60;99.90;;;;;;4181946;28;20185;-66
2022/10/31 05:42:11;;;;;;;5.60;1.70;;;7.50;99.90;;;;;;4182056;28;20251;-67
2022/10/31 05:44:12;;;;;;;4.33;1.80;;;7.50;99.90;;;;;;4182033;28;20488;-66
2022/10/31 05:46:12;;;;;;;2.63;1.60;;;7.50;99.90;;;;;;4182023;28;20196;-67
2022/10/31 05:48:13;;;;;;;4.60;1.80;;;7.40;99.90;;;;;;4182139;28;20210;-66
2022/10/31 05:50:13;;;;;;;8.73;2.27;;;7.40;99.90;;;;;;4181449;28;20239;-67
2022/10/31 05:52:14;;;;;;;2.93;1.90;;;7.40;99.90;;;;;;4182317;28;20183;-67
2022/10/31 05:54:14;;;;;;;3.83;1.90;;;7.40;99.90;;;;;;4182570;28;20272;-67
2022/10/31 05:56:15;;;;;;;4.83;2.13;;;7.50;99.90;;;;;;4181997;28;20184;-67
2022/10/31 05:58:15;;;;;;;4.43;1.73;;;7.60;99.90;;;;;;4182650;28;20227;-67
2022/10/31 06:00:17;;;;;;;3.67;1.90;;;7.70;99.90;;;;;;4186356;28;20249;-67
2022/10/31 06:02:19;;;;;;;5.50;2.10;;;7.80;99.90;;;;;;4198152;28;20262;-67
2022/10/31 06:04:19;;;;;;;4.17;1.90;;;7.80;99.90;;;;;;4198286;28;20487;-67
2022/10/31 06:06:20;;;;;;;6.10;2.00;;;7.80;99.90;;;;;;4198208;28;21084;-67
2022/10/31 06:08:20;;;;;;;3.23;1.53;;;7.70;99.90;;;;;;4197937;28;20215;-67
2022/10/31 06:10:21;;;;;;;4.63;1.93;;;7.70;99.90;;;;;;4197970;28;20207;-67
2022/10/31 06:12:22;;;;;;;8.20;1.80;;;7.60;99.90;;;;;;4197881;28;20191;-67
2022/10/31 06:14:23;;;;;;;4.33;1.50;;;7.70;99.90;;;;;;4198144;28;20225;-67
2022/10/31 06:16:23;;;;;;;6.63;2.30;;;7.60;99.90;;;;;;4198194;28;20215;-67
2022/10/31 06:18:24;;;;;;;5.30;1.57;;;7.60;99.90;;;;;;4198129;28;20211;-66
2022/10/31 06:20:24;;;;;;;4.70;2.50;;;7.60;99.90;;;;;;4197270;28;20230;-67
2022/10/31 06:22:25;;;;;;;4.53;2.17;;;7.60;99.90;;;;;;4197784;28;20256;-67
2022/10/31 06:24:25;;;;;;;4.90;1.80;;;7.60;99.90;;;;;;4197826;28;20667;-67
2022/10/31 06:26:26;;;;;;;3.57;1.90;;;7.80;99.90;;;;;;4197918;28;20186;-67
2022/10/31 06:28:27;;;;;;;5.43;3.03;;;7.90;99.90;;;;;;4197593;28;20231;-67
2022/10/31 06:30:27;;;;;;;2.73;1.60;;;8.00;99.90;;;;;;4197254;28;20638;-67
2022/10/31 06:32:28;;;;;;;2.67;1.87;;;7.90;99.90;;;;;;4198075;28;20180;-67
2022/10/31 06:34:28;;;;;;;7.63;1.97;;;7.80;99.90;;;;;;4197598;28;20314;-66
2022/10/31 06:36:29;;;;;;;4.87;1.53;;;7.80;99.90;;;;;;4197705;28;20172;-67
2022/10/31 06:38:29;;;;;;;1.90;1.50;;;7.80;99.90;;;;;;4196354;28;20211;-67
2022/10/31 06:40:30;;;;;;;3.97;2.03;;;7.80;99.90;;;;;;4197025;28;20182;-67
2022/10/31 06:42:30;;;;;;;4.27;1.90;;;7.90;99.90;;;;;;4197583;28;20305;-67
2022/10/31 06:44:31;;;;;;;4.07;1.90;;;7.90;99.90;;;;;;4197518;28;20179;-67
2022/10/31 06:46:32;;;;;;;2.33;1.80;;;8.00;99.90;;;;;;4197524;28;20186;-67
2022/10/31 06:48:32;;;;;;;5.43;1.87;;;8.00;99.90;;;;;;4197557;28;20239;-67
2022/10/31 06:50:33;;;;;;;4.07;1.67;;;8.00;99.90;;;;;;4196877;28;20716;-67
2022/10/31 06:52:33;;;;;;;4.67;2.17;;;8.00;99.90;;;;;;4197394;28;20180;-68
2022/10/31 06:54:34;;;;;;;3.10;1.83;;;8.00;99.90;;;;;;4197370;28;20180;-66
2022/10/31 06:56:34;;;;;;;5.43;2.07;;;8.00;99.90;;;;;;4197325;28;20174;-67
2022/10/31 06:58:35;;;;;;;6.40;2.90;;;8.10;99.90;;;;;;4197245;28;20204;-67
2022/10/31 07:00:36;;;;;;;10.17;2.67;;;8.10;99.90;;;;;;4196670;28;20213;-67
2022/10/31 07:02:36;;;;;;;10.23;2.57;;;8.20;99.90;;;;;;4197251;28;20189;-67
2022/10/31 07:04:37;;;;;;;74.63;9.00;;;8.20;99.90;;;;;;4197416;28;20219;-67
2022/10/31 07:06:38;;;;;;;48.10;6.93;;;8.40;99.90;;;;;;4197373;28;20184;-67
2022/10/31 07:08:39;;;;;;;66.97;8.47;;;8.50;99.90;;;;;;4196925;28;20207;-67
2022/10/31 07:10:41;;;;;;;44.17;8.27;;;8.50;99.90;;;;;;4196505;28;20700;-67
2022/10/31 07:12:41;;;;;;;56.13;8.77;;;8.60;99.90;;;;;;4197053;28;20238;-68
2022/10/31 07:14:42;;;;;;;53.53;6.27;;;8.70;99.90;;;;;;4191523;28;20172;-68
2022/10/31 07:16:42;;;;;;;13.87;2.97;;;8.80;99.90;;;;;;4180718;28;20273;-67
2022/10/31 07:18:43;;;;;;;27.30;5.20;;;8.90;99.90;;;;;;4180594;28;20264;-67
2022/10/31 07:20:43;;;;;;;47.53;7.73;;;9.00;99.90;;;;;;4180075;28;20187;-67
2022/10/31 07:22:44;;;;;;;38.00;6.20;;;9.10;99.90;;;;;;4180671;28;20208;-67
2022/10/31 07:24:44;;;;;;;32.67;4.53;;;9.10;99.90;;;;;;4188397;28;20224;-67
2022/10/31 07:26:47;;;;;;;25.33;4.40;;;9.20;99.90;;;;;;4199940;28;20188;-66
2022/10/31 07:28:48;;;;;;;11.07;3.93;;;9.30;99.90;;;;;;4196875;28;20207;-66
2022/10/31 07:30:53;;;;;;;14.23;4.27;;;9.40;99.90;;;;;;4196667;28;20184;-66
2022/10/31 07:32:53;;;;;;;6.43;2.70;;;9.60;99.90;;;;;;4196998;28;20192;-65
2022/10/31 07:34:54;;;;;;;7.70;3.00;;;9.60;99.90;;;;;;4197245;28;20681;-66
2022/10/31 07:36:54;;;;;;;8.00;2.80;;;9.70;99.90;;;;;;4195721;28;20184;-67
2022/10/31 07:38:55;;;;;;;6.40;2.73;;;9.80;99.90;;;;;;4197235;28;20195;-66
2022/10/31 07:40:55;;;;;;;7.23;2.60;;;9.90;99.90;;;;;;4196043;28;20292;-65
2022/10/31 07:42:57;;;;;;;7.17;2.70;;;9.90;99.90;;;;;;4196995;28;20613;-65
2022/10/31 07:44:58;;;;;;;5.17;2.40;;;9.90;99.90;;;;;;4196990;28;20191;-66
2022/10/31 07:46:58;;;;;;;9.03;2.73;;;10.00;99.90;;;;;;4196684;28;20333;-68
2022/10/31 07:49:02;;;;;;;5.00;2.13;;;10.20;99.90;;;;;;4196823;28;20297;-67
2022/10/31 07:51:02;;;;;;;11.70;3.27;;;10.30;99.90;;;;;;4196334;28;20642;-67
2022/10/31 07:53:08;;;;;;;6.10;2.80;;;10.50;99.90;;;;;;4196607;28;20271;-67
2022/10/31 07:55:09;;;;;;;4.03;2.00;;;10.70;99.90;;;;;;4190046;28;20188;-68
2022/10/31 07:57:10;;;;;;;6.27;2.30;;;10.80;99.50;;;;;;4196535;28;20198;-67
2022/10/31 07:59:10;;;;;;;6.70;2.00;;;11.00;98.80;;;;;;4196715;28;20180;-68
2022/10/31 08:01:11;;;;;;;6.43;1.90;;;11.00;97.60;;;;;;4196177;28;20206;-68
2022/10/31 08:03:15;;;;;;;5.07;1.67;;;11.20;98.20;;;;;;4196697;28;20190;-67
2022/10/31 08:05:15;;;;;;;3.57;1.63;;;11.40;97.70;;;;;;4196475;28;20183;-67
2022/10/31 08:07:17;;;;;;;2.97;1.63;;;11.60;97.40;;;;;;4196609;28;20262;-68
2022/10/31 08:09:17;;;;;;;4.83;1.73;;;11.80;96.50;;;;;;4196891;28;20261;-68
2022/10/31 08:11:18;;;;;;;2.97;1.70;;;12.10;96.30;;;;;;4195967;28;20187;-67
2022/10/31 08:13:18;;;;;;;8.17;2.40;;;12.20;95.80;;;;;;4197181;28;20202;-68
2022/10/31 08:15:19;;;;;;;5.00;1.97;;;12.40;94.70;;;;;;4197701;28;20690;-68
2022/10/31 08:17:19;;;;;;;3.23;2.00;;;12.60;94.60;;;;;;4197613;28;20187;-68
2022/10/31 08:19:20;;;;;;;4.03;1.90;;;12.70;94.20;;;;;;4196237;28;20179;-67
2022/10/31 08:21:21;;;;;;;4.03;1.97;;;12.70;92.60;;;;;;4194573;28;20183;-67
2022/10/31 08:23:21;;;;;;;2.83;1.90;;;13.00;92.10;;;;;;4195923;28;20191;-66
2022/10/31 08:25:22;;;;;;;3.23;1.93;;;13.20;91.60;;;;;;4195874;28;20184;-67
2022/10/31 08:27:23;;;;;;;2.57;2.00;;;13.40;91.90;;;;;;4195942;28;20184;-67
2022/10/31 08:29:23;;;;;;;5.73;1.90;;;13.60;91.50;;;;;;4195874;28;20783;-67
2022/10/31 08:31:26;;;;;;;3.53;1.80;;;13.70;91.30;;;;;;4195495;28;20180;-68
2022/10/31 08:33:26;;;;;;;2.23;1.80;;;14.10;90.80;;;;;;4196084;28;20188;-69
2022/10/31 08:35:27;;;;;;;2.30;2.07;;;14.50;90.50;;;;;;4196455;28;20192;-67
2022/10/31 08:37:28;;;;;;;3.77;1.70;;;14.80;88.80;;;;;;4196016;28;20202;-67
2022/10/31 08:39:29;;;;;;;3.27;1.73;;;14.90;88.50;;;;;;4195488;28;20277;-67
2022/10/31 08:41:30;;;;;;;3.97;2.00;;;15.00;86.20;;;;;;4195306;28;20190;-67
2022/10/31 08:43:30;;;;;;;7.87;2.00;;;15.10;86.80;;;;;;4195551;28;20569;-67
2022/10/31 08:45:33;;;;;;;2.70;1.83;;;15.30;88.20;;;;;;4195720;28;20266;-67
2022/10/31 08:47:33;;;;;;;4.33;2.17;;;15.50;87.80;;;;;;4194146;28;20221;-67
2022/10/31 08:49:34;;;;;;;6.33;2.00;;;15.50;88.20;;;;;;4195764;28;20183;-67
2022/10/31 08:51:35;;;;;;;3.87;1.67;;;15.80;86.40;;;;;;4195179;28;20176;-67
2022/10/31 08:53:36;;;;;;;2.23;2.00;;;16.00;87.40;;;;;;4195712;28;20271;-68
2022/10/31 08:55:38;;;;;;;5.73;1.80;;;16.30;84.00;;;;;;4195677;28;20233;-68
2022/10/31 08:57:39;;;;;;;6.13;2.00;;;16.40;83.00;;;;;;4194584;28;20738;-67
2022/10/31 08:59:39;;;;;;;4.60;1.77;;;16.30;81.10;;;;;;4195543;28;20186;-67
2022/10/31 09:01:40;;;;;;;7.03;2.80;;;16.30;84.20;;;;;;4195075;28;20647;-68
2022/10/31 09:03:41;;;;;;;7.40;3.00;;;16.50;81.60;;;;;;4195631;28;20634;-67
2022/10/31 09:05:42;;;;;;;5.13;2.20;;;16.70;80.30;;;;;;4195364;28;20202;-67
2022/10/31 09:07:43;;;;;;;5.93;2.63;;;17.00;78.50;;;;;;4195326;28;20204;-67
2022/10/31 09:09:43;;;;;;;5.37;1.97;;;17.00;81.70;;;;;;4195357;28;20206;-67
2022/10/31 09:11:44;;;;;;;3.70;1.93;;;17.40;78.50;;;;;;4193391;28;20209;-67
2022/10/31 09:13:45;;;;;;;7.53;2.87;;;17.30;76.70;;;;;;4195266;28;20184;-67
2022/10/31 09:15:48;;;;;;;7.13;2.20;;;17.60;72.80;;;;;;4195120;28;20194;-65
2022/10/31 09:17:49;;;;;;;4.40;2.60;;;17.80;75.10;;;;;;4193490;28;20203;-67
2022/10/31 09:19:49;;;;;;;4.90;2.33;;;18.10;73.40;;;;;;4195244;28;20188;-67
2022/10/31 09:21:54;;;;;;;5.37;2.33;;;18.70;72.40;;;;;;4194548;28;20194;-68
2022/10/31 09:23:54;;;;;;;4.07;1.93;;;19.10;69.50;;;;;;4193886;28;20651;-67
2022/10/31 09:25:55;;;;;;;6.30;1.90;;;19.30;66.50;;;;;;4195223;28;20241;-65
2022/10/31 09:27:58;;;;;;;3.40;2.23;;;19.40;66.00;;;;;;4179379;28;20342;-65
2022/10/31 09:29:59;;;;;;;7.47;2.70;;;19.20;65.20;;;;;;4183747;28;20654;-67
2022/10/31 09:32:00;;;;;;;5.47;2.43;;;19.20;63.40;;;;;;4194420;28;20190;-67
2022/10/31 09:34:00;;;;;;;5.33;2.47;;;19.50;64.30;;;;;;4195145;28;20589;-66
2022/10/31 09:36:01;;;;;;;5.07;2.67;;;19.50;64.80;;;;;;4195227;28;20180;-67
2022/10/31 09:38:06;;;;;;;4.00;2.47;;;19.90;63.90;;;;;;4194987;28;20298;-67
2022/10/31 09:40:07;;;;;;;3.67;2.00;;;19.70;65.00;;;;;;4195073;28;20248;-67
2022/10/31 09:42:35;;;;;;;4.20;2.00;;;19.70;66.30;;;;;;4194503;28;20188;-67
2022/10/31 09:45:28;;;;;;;5.73;2.30;;;20.10;64.50;;;;;;4194967;28;20195;-66
2022/10/31 09:47:57;;;;;;;5.30;2.10;;;20.60;63.40;;;;;;4194671;28;20207;-67
2022/10/31 09:50:17;;;;;;;5.10;1.80;;;20.90;61.20;;;;;;4195125;28;20631;-67
2022/10/31 09:52:24;;;;;;;5.60;1.80;;;20.90;62.30;;;;;;4193947;28;20237;-68
2022/10/31 09:55:05;;;;;;;5.43;2.10;;;21.40;60.20;;;;;;4194299;28;20187;-66
2022/10/31 09:57:14;;;;;;;5.43;2.10;;;21.30;59.30;;;;;;4184032;28;20192;-70
2022/10/31 09:59:34;;;;;;;5.70;2.37;;;21.40;56.90;;;;;;4200264;28;20186;-67
2022/10/31 10:01:55;;;;;;;6.37;2.30;;;21.60;55.80;;;;;;4200704;28;20542;-66
2022/10/31 10:04:20;;;;;;;8.10;2.80;;;21.40;55.50;;;;;;4206027;28;20182;-67
2022/10/31 10:06:27;;;;;;;5.03;2.20;;;21.50;55.00;;;;;;4195074;28;20175;-66
2022/10/31 10:08:33;;;;;;;7.43;2.80;;;21.60;55.90;;;;;;4177153;28;20239;-67
2022/10/31 10:10:51;;;;;;;8.17;2.37;;;21.60;55.30;;;;;;4194177;28;20254;-67
2022/10/31 10:13:37;;;;;;;6.03;2.50;;;21.40;58.50;;;;;;4207046;28;20241;-67
2022/10/31 10:16:16;;;;;;;5.30;2.37;;;21.50;57.30;;;;;;4204777;28;20210;-65
2022/10/31 10:18:47;;;;;;;4.63;2.03;;;21.60;58.20;;;;;;4195324;28;20265;-66
2022/10/31 10:21:14;;;;;;;7.57;2.10;;;21.70;58.70;;;;;;4186910;28;20210;-66
2022/10/31 10:23:35;;;;;;;3.90;2.37;;;21.80;58.60;;;;;;4206694;28;20274;-66
2022/10/31 10:25:40;;;;;;;4.77;1.80;;;22.10;57.30;;;;;;4207889;28;20188;-66
2022/10/31 10:28:23;;;;;;;5.20;1.90;;;21.90;58.50;;;;;;4203584;28;20721;-66
2022/10/31 10:30:39;;;;;;;6.77;1.93;;;22.10;56.90;;;;;;4197134;28;20190;-66
2022/10/31 10:32:53;;;;;;;18.53;3.40;;;21.90;54.70;;;;;;4185542;28;20642;-66
2022/10/31 10:35:16;;;;;;;5.70;2.07;;;21.80;53.80;;;;;;4208816;28;20182;-66
2022/10/31 10:37:38;;;;;;;5.43;2.00;;;21.30;52.60;;;;;;4204434;28;20190;-66
2022/10/31 10:39:45;;;;;;;4.70;2.20;;;21.90;52.00;;;;;;4202170;28;20175;-67
2022/10/31 10:44:11;;;;;;;7.20;2.23;;;21.50;56.90;;;;;;4199290;28;20218;-65
2022/10/31 10:49:14;;;;;;;7.63;3.23;;;22.30;51.80;;;;;;4189768;28;20245;-66
2022/10/31 10:51:37;;;;;;;6.30;2.17;;;22.10;50.40;;;;;;4205659;28;20175;-66
2022/10/31 10:54:00;;;;;;;6.10;2.30;;;22.10;53.30;;;;;;4205734;28;20653;-67
2022/10/31 10:56:15;;;;;;;11.30;2.30;;;22.10;54.80;;;;;;4199571;28;20250;-67
2022/10/31 10:58:16;;;;;;;7.47;2.20;;;22.00;55.50;;;;;;4195417;28;20321;-67
2022/10/31 11:00:36;;;;;;;16.73;2.70;;;22.00;56.30;;;;;;4211703;28;20191;-67